Quiberon — FNQY — position and weather

sailwx.info

Track history (hours):
 
Tides and Currents Weather Stations Pressure Air Temp Water Temp Dewpoint Dewpoint Depression Visibility Wind Speed Wind Dir Waves Ship Positions

Quiberon

Operator: Brittany Ferries

Last reported at 2020-Sep-29 12:50 UTC. Time now 2020-Oct-01 08:06 UTC.
Position N 47°44' W 003°22'.

Length 25 m; draft 4.8 m.

Type: Tug. MMSI: 228296800.

Date/timePositionNaut miles runAvg speedWind from/ knotsBaromVisibWave heightAir tempDewpointWater temp
2020-Sep-29 12:50N 47°44' W 003°22'0 0.3
2020-Sep-29 11:30N 47°44' W 003°22'1 0.6
2020-Sep-29 10:00N 47°44' W 003°21'0 0.0
2020-Sep-29 07:00N 47°44' W 003°21'0 0.0
2020-Sep-29 05:00N 47°44' W 003°21'0 0.0
2020-Sep-29 04:30N 47°44' W 003°21'0 0.0
2020-Sep-29 00:30N 47°44' W 003°21'0 0.0
2020-Sep-28 22:00N 47°44' W 003°21'7 3.6
2020-Sep-28 20:00N 47°37' W 003°21'5 9.3
2020-Sep-28 19:30N 47°33' W 003°17'10 9.5
2020-Sep-28 18:30N 47°26' W 003°09'9 9.4
2020-Sep-28 17:30N 47°18' W 002°60'5 9.1
2020-Sep-28 17:00N 47°15' W 002°55'79 8.8
2020-Sep-28 08:04N 46°07' W 001°57'6 8.6
2020-Sep-28 07:19N 46°02' W 001°51'33 7.7
2020-Sep-28 03:00N 45°37' W 001°20'11 7.3
2020-Sep-28 01:30N 45°37' W 001°04'3 6.9
2020-Sep-28 01:00N 45°34' W 001°02'10 3.2
2020-Sep-27 22:00N 45°26' W 000°53'  
Track history (hours):
 
Tides and Currents Weather Stations Pressure Air Temp Water Temp Dewpoint Dewpoint Depression Visibility Wind Speed Wind Dir Waves Ship Positions

Quiberon

Operator: Brittany Ferries

Last reported at 2020-Sep-29 12:50 UTC. Time now 2020-Oct-01 08:06 UTC.
Position N 47°44' W 003°22'.

Length 25 m; draft 4.8 m.

Type: Tug. MMSI: 228296800.

Date/timePositionNaut miles runAvg speedWind from/ knotsBaromVisibWave heightAir tempDewpointWater temp
2020-Sep-29 12:50N 47°44' W 003°22'0 0.3
2020-Sep-29 11:30N 47°44' W 003°22'1 0.6
2020-Sep-29 10:00N 47°44' W 003°21'0 0.0
2020-Sep-29 07:00N 47°44' W 003°21'0 0.0
2020-Sep-29 05:00N 47°44' W 003°21'0 0.0
2020-Sep-29 04:30N 47°44' W 003°21'0 0.0
2020-Sep-29 00:30N 47°44' W 003°21'0 0.0
2020-Sep-28 22:00N 47°44' W 003°21'7 3.6
2020-Sep-28 20:00N 47°37' W 003°21'5 9.3
2020-Sep-28 19:30N 47°33' W 003°17'10 9.5
2020-Sep-28 18:30N 47°26' W 003°09'9 9.4
2020-Sep-28 17:30N 47°18' W 002°60'5 9.1
2020-Sep-28 17:00N 47°15' W 002°55'79 8.8
2020-Sep-28 08:04N 46°07' W 001°57'6 8.6
2020-Sep-28 07:19N 46°02' W 001°51'33 7.7
2020-Sep-28 03:00N 45°37' W 001°20'11 7.3
2020-Sep-28 01:30N 45°37' W 001°04'3 6.9
2020-Sep-28 01:00N 45°34' W 001°02'10 3.2
2020-Sep-27 22:00N 45°26' W 000°53'  

Dump ship's entire track history